sensor_id;sensor_type;location;lat;lon;timestamp;pressure;altitude;pressure_sealevel;temperature
61189;BMP280;47054;39.716;2.904;2023-09-19T00:01:58;100451.34;;;26.77
61189;BMP280;47054;39.716;2.904;2023-09-19T00:04:43;100448.81;;;26.70
61189;BMP280;47054;39.716;2.904;2023-09-19T00:07:28;100457.09;;;26.66
61189;BMP280;47054;39.716;2.904;2023-09-19T00:10:13;100446.69;;;26.61
61189;BMP280;47054;39.716;2.904;2023-09-19T00:13:00;100457.50;;;26.65
61189;BMP280;47054;39.716;2.904;2023-09-19T00:15:46;100455.63;;;26.62
61189;BMP280;47054;39.716;2.904;2023-09-19T00:18:32;100445.19;;;26.60
61189;BMP280;47054;39.716;2.904;2023-09-19T00:21:19;100456.06;;;26.60
61189;BMP280;47054;39.716;2.904;2023-09-19T00:24:04;100446.88;;;26.54
61189;BMP280;47054;39.716;2.904;2023-09-19T00:26:50;100448.75;;;26.57
61189;BMP280;47054;39.716;2.904;2023-09-19T00:29:35;100448.84;;;26.54
61189;BMP280;47054;39.716;2.904;2023-09-19T00:32:19;100437.03;;;26.44
61189;BMP280;47054;39.716;2.904;2023-09-19T00:35:04;100449.59;;;26.54
61189;BMP280;47054;39.716;2.904;2023-09-19T00:37:53;100445.78;;;26.52
61189;BMP280;47054;39.716;2.904;2023-09-19T00:40:37;100436.06;;;26.51
61189;BMP280;47054;39.716;2.904;2023-09-19T00:43:22;100438.16;;;26.47
61189;BMP280;47054;39.716;2.904;2023-09-19T00:46:08;100432.81;;;26.43
61189;BMP280;47054;39.716;2.904;2023-09-19T00:48:52;100449.03;;;26.47
61189;BMP280;47054;39.716;2.904;2023-09-19T00:51:38;100444.88;;;26.42
61189;BMP280;47054;39.716;2.904;2023-09-19T00:54:30;100451.09;;;26.43
61189;BMP280;47054;39.716;2.904;2023-09-19T00:57:14;100444.19;;;26.38
61189;BMP280;47054;39.716;2.904;2023-09-19T01:00:00;100448.75;;;26.41
61189;BMP280;47054;39.716;2.904;2023-09-19T01:02:49;100460.09;;;26.40
61189;BMP280;47054;39.716;2.904;2023-09-19T01:05:34;100442.41;;;26.32
61189;BMP280;47054;39.716;2.904;2023-09-19T01:08:20;100452.84;;;26.33
61189;BMP280;47054;39.716;2.904;2023-09-19T01:11:24;100452.75;;;26.37
61189;BMP280;47054;39.716;2.904;2023-09-19T01:17:02;100440.47;;;26.32
61189;BMP280;47054;39.716;2.904;2023-09-19T01:20:06;100445.13;;;26.32
61189;BMP280;47054;39.716;2.904;2023-09-19T01:23:12;100442.09;;;26.30
61189;BMP280;47054;39.716;2.904;2023-09-19T01:32:01;100429.84;;;26.21
61189;BMP280;47054;39.716;2.904;2023-09-19T01:34:55;100438.41;;;26.20
61189;BMP280;47054;39.716;2.904;2023-09-19T01:37:48;100445.06;;;26.19
61189;BMP280;47054;39.716;2.904;2023-09-19T01:40:41;100434.34;;;26.12
61189;BMP280;47054;39.716;2.904;2023-09-19T01:43:38;100435.84;;;26.13
61189;BMP280;47054;39.716;2.904;2023-09-19T01:46:25;100440.19;;;26.10
61189;BMP280;47054;39.716;2.904;2023-09-19T01:52:21;100439.59;;;26.03
61189;BMP280;47054;39.716;2.904;2023-09-19T01:55:08;100443.31;;;26.09
61189;BMP280;47054;39.716;2.904;2023-09-19T01:58:14;100443.78;;;26.07
61189;BMP280;47054;39.716;2.904;2023-09-19T02:01:01;100446.13;;;26.05
61189;BMP280;47054;39.716;2.904;2023-09-19T02:03:50;100444.63;;;26.04
61189;BMP280;47054;39.716;2.904;2023-09-19T02:06:35;100445.81;;;26.03
61189;BMP280;47054;39.716;2.904;2023-09-19T02:09:19;100436.09;;;26.02
61189;BMP280;47054;39.716;2.904;2023-09-19T02:12:05;100436.94;;;25.99
61189;BMP280;47054;39.716;2.904;2023-09-19T02:14:49;100433.06;;;26.00
61189;BMP280;47054;39.716;2.904;2023-09-19T02:17:34;100437.50;;;25.94
61189;BMP280;47054;39.716;2.904;2023-09-19T02:20:19;100442.91;;;25.94
61189;BMP280;47054;39.716;2.904;2023-09-19T02:23:05;100450.28;;;25.94
61189;BMP280;47054;39.716;2.904;2023-09-19T02:25:53;100441.88;;;25.88
61189;BMP280;47054;39.716;2.904;2023-09-19T02:28:39;100433.38;;;25.86
61189;BMP280;47054;39.716;2.904;2023-09-19T02:31:24;100430.34;;;25.84
61189;BMP280;47054;39.716;2.904;2023-09-19T02:34:09;100428.88;;;25.80
61189;BMP280;47054;39.716;2.904;2023-09-19T02:36:53;100422.66;;;25.79
61189;BMP280;47054;39.716;2.904;2023-09-19T02:39:39;100414.50;;;25.79
61189;BMP280;47054;39.716;2.904;2023-09-19T02:42:23;100416.50;;;25.79
61189;BMP280;47054;39.716;2.904;2023-09-19T02:45:08;100421.16;;;25.78
61189;BMP280;47054;39.716;2.904;2023-09-19T02:47:54;100423.84;;;25.78
61189;BMP280;47054;39.716;2.904;2023-09-19T02:50:39;100421.16;;;25.78
61189;BMP280;47054;39.716;2.904;2023-09-19T02:53:26;100414.97;;;25.78
61189;BMP280;47054;39.716;2.904;2023-09-19T02:56:11;100416.13;;;25.77
61189;BMP280;47054;39.716;2.904;2023-09-19T02:58:57;100414.59;;;25.76
61189;BMP280;47054;39.716;2.904;2023-09-19T03:01:43;100413.84;;;25.75
61189;BMP280;47054;39.716;2.904;2023-09-19T03:04:28;100409.63;;;25.74
61189;BMP280;47054;39.716;2.904;2023-09-19T03:07:13;100409.63;;;25.74
61189;BMP280;47054;39.716;2.904;2023-09-19T03:09:57;100408.06;;;25.73
61189;BMP280;47054;39.716;2.904;2023-09-19T03:12:42;100408.84;;;25.74
61189;BMP280;47054;39.716;2.904;2023-09-19T03:15:26;100408.06;;;25.73
61189;BMP280;47054;39.716;2.904;2023-09-19T03:18:11;100408.50;;;25.72
61189;BMP280;47054;39.716;2.904;2023-09-19T03:20:57;100401.13;;;25.72
61189;BMP280;47054;39.716;2.904;2023-09-19T03:23:45;100394.56;;;25.70
61189;BMP280;47054;39.716;2.904;2023-09-19T03:26:30;100386.16;;;25.64
61189;BMP280;47054;39.716;2.904;2023-09-19T03:29:15;100389.97;;;25.67
61189;BMP280;47054;39.716;2.904;2023-09-19T03:32:02;100390.47;;;25.62
61189;BMP280;47054;39.716;2.904;2023-09-19T03:34:48;100400.91;;;25.63
61189;BMP280;47054;39.716;2.904;2023-09-19T03:37:34;100395.13;;;25.61
61189;BMP280;47054;39.716;2.904;2023-09-19T03:40:19;100395.56;;;25.60
61189;BMP280;47054;39.716;2.904;2023-09-19T03:43:06;100399.13;;;25.57
61189;BMP280;47054;39.716;2.904;2023-09-19T03:45:50;100383.84;;;25.47
61189;BMP280;47054;39.716;2.904;2023-09-19T03:48:36;100387.22;;;25.51
61189;BMP280;47054;39.716;2.904;2023-09-19T03:51:21;100389.19;;;25.50
61189;BMP280;47054;39.716;2.904;2023-09-19T03:54:06;100385.34;;;25.48
61189;BMP280;47054;39.716;2.904;2023-09-19T03:56:51;100385.78;;;25.46
61189;BMP280;47054;39.716;2.904;2023-09-19T03:59:35;100383.06;;;25.46
61189;BMP280;47054;39.716;2.904;2023-09-19T04:02:20;100385.78;;;25.46
61189;BMP280;47054;39.716;2.904;2023-09-19T04:05:09;100384.25;;;25.45
61189;BMP280;47054;39.716;2.904;2023-09-19T04:07:55;100376.25;;;25.38
61189;BMP280;47054;39.716;2.904;2023-09-19T04:10:42;100380.41;;;25.43
61189;BMP280;47054;39.716;2.904;2023-09-19T04:13:27;100372.78;;;25.38
61189;BMP280;47054;39.716;2.904;2023-09-19T04:16:11;100372.78;;;25.38
61189;BMP280;47054;39.716;2.904;2023-09-19T04:18:56;100370.81;;;25.38
61189;BMP280;47054;39.716;2.904;2023-09-19T04:21:40;100380.13;;;25.37
61189;BMP280;47054;39.716;2.904;2023-09-19T04:24:25;100360.13;;;25.31
61189;BMP280;47054;39.716;2.904;2023-09-19T04:27:09;100374.78;;;25.34
61189;BMP280;47054;39.716;2.904;2023-09-19T04:29:54;100361.34;;;25.27
61189;BMP280;47054;39.716;2.904;2023-09-19T04:32:43;100368.66;;;25.30
61189;BMP280;47054;39.716;2.904;2023-09-19T04:35:27;100353.59;;;25.29
61189;BMP280;47054;39.716;2.904;2023-09-19T04:38:15;100347.00;;;25.26
61189;BMP280;47054;39.716;2.904;2023-09-19T04:41:00;100343.97;;;25.24
61189;BMP280;47054;39.716;2.904;2023-09-19T04:43:44;100351.34;;;25.24
61189;BMP280;47054;39.716;2.904;2023-09-19T04:46:29;100344.50;;;25.19
61189;BMP280;47054;39.716;2.904;2023-09-19T04:49:13;100351.41;;;25.20
61189;BMP280;47054;39.716;2.904;2023-09-19T04:51:57;100363.03;;;25.21
61189;BMP280;47054;39.716;2.904;2023-09-19T04:54:42;100341.09;;;25.15
61189;BMP280;47054;39.716;2.904;2023-09-19T04:57:26;100354.19;;;25.17
61189;BMP280;47054;39.716;2.904;2023-09-19T05:00:17;100354.19;;;25.17
61189;BMP280;47054;39.716;2.904;2023-09-19T05:03:03;100355.34;;;25.19
61189;BMP280;47054;39.716;2.904;2023-09-19T05:05:48;100355.75;;;25.18
61189;BMP280;47054;39.716;2.904;2023-09-19T05:08:32;100351.50;;;25.17
61189;BMP280;47054;39.716;2.904;2023-09-19T05:11:20;100350.78;;;25.13
61189;BMP280;47054;39.716;2.904;2023-09-19T05:14:05;100358.16;;;25.16
61189;BMP280;47054;39.716;2.904;2023-09-19T05:16:50;100359.38;;;25.11
61189;BMP280;47054;39.716;2.904;2023-09-19T17:44:21;100465.50;;;24.74
61189;BMP280;47054;39.716;2.904;2023-09-19T17:47:06;100462.94;;;25.06
61189;BMP280;47054;39.716;2.904;2023-09-19T17:49:51;100459.16;;;25.43
61189;BMP280;47054;39.716;2.904;2023-09-19T17:52:35;100442.34;;;25.67
61189;BMP280;47054;39.716;2.904;2023-09-19T17:55:20;100432.97;;;25.88
61189;BMP280;47054;39.716;2.904;2023-09-19T17:58:06;100410.06;;;26.05
61189;BMP280;47054;39.716;2.904;2023-09-19T18:00:50;100399.97;;;26.21
61189;BMP280;47054;39.716;2.904;2023-09-19T18:03:36;100393.56;;;26.28
61189;BMP280;47054;39.716;2.904;2023-09-19T18:06:21;100401.44;;;26.39
61189;BMP280;47054;39.716;2.904;2023-09-19T18:09:05;100390.50;;;26.42
61189;BMP280;47054;39.716;2.904;2023-09-19T18:11:51;100411.44;;;26.58
61189;BMP280;47054;39.716;2.904;2023-09-19T18:14:36;100425.31;;;26.63
61189;BMP280;47054;39.716;2.904;2023-09-19T18:17:20;100426.81;;;26.64
61189;BMP280;47054;39.716;2.904;2023-09-19T18:20:05;100423.34;;;26.64
61189;BMP280;47054;39.716;2.904;2023-09-19T18:22:51;100408.31;;;26.59
61189;BMP280;47054;39.716;2.904;2023-09-19T18:25:38;100401.88;;;26.53
61189;BMP280;47054;39.716;2.904;2023-09-19T18:28:23;100392.09;;;26.56
61189;BMP280;47054;39.716;2.904;2023-09-19T18:31:08;100403.94;;;26.62
61189;BMP280;47054;39.716;2.904;2023-09-19T18:33:54;100389.19;;;26.63
61189;BMP280;47054;39.716;2.904;2023-09-19T18:36:39;100382.28;;;26.58
61189;BMP280;47054;39.716;2.904;2023-09-19T18:39:24;100395.13;;;26.58
61189;BMP280;47054;39.716;2.904;2023-09-19T18:42:09;100396.84;;;26.52
61189;BMP280;47054;39.716;2.904;2023-09-19T18:44:55;100388.84;;;26.45
61189;BMP280;47054;39.716;2.904;2023-09-19T18:47:41;100414.16;;;26.58
61189;BMP280;47054;39.716;2.904;2023-09-19T18:50:26;100383.53;;;26.25
61189;BMP280;47054;39.716;2.904;2023-09-19T18:53:12;100375.38;;;26.25
61189;BMP280;47054;39.716;2.904;2023-09-19T18:56:10;100410.53;;;26.48
61189;BMP280;47054;39.716;2.904;2023-09-19T18:58:58;100410.97;;;26.47
61189;BMP280;47054;39.716;2.904;2023-09-19T19:01:44;100396.00;;;26.39
